createdAt,value
2018-09-27T00:02:05.229Z,16.00
2018-09-27T00:04:36.259Z,15.80
2018-09-27T00:07:07.520Z,15.70
2018-09-27T00:09:38.551Z,15.60
2018-09-27T00:12:09.571Z,15.50
2018-09-27T00:14:40.646Z,15.40
2018-09-27T00:17:11.790Z,15.40
2018-09-27T00:19:43.170Z,15.20
2018-09-27T00:22:15.140Z,15.20
2018-09-27T00:24:46.540Z,15.20
2018-09-27T00:27:17.585Z,15.10
2018-09-27T00:29:48.600Z,15.20
2018-09-27T00:32:19.714Z,15.10
2018-09-27T00:34:50.824Z,15.00
2018-09-27T00:37:21.762Z,14.90
2018-09-27T00:39:52.806Z,14.90
2018-09-27T00:42:23.951Z,14.80
2018-09-27T00:44:54.970Z,14.80
2018-09-27T00:47:26.024Z,14.70
2018-09-27T00:49:57.154Z,14.60
2018-09-27T00:52:28.516Z,14.80
2018-09-27T00:54:59.551Z,14.80
2018-09-27T00:57:30.681Z,14.90
2018-09-27T01:00:01.760Z,14.90
2018-09-27T01:02:32.849Z,14.90
2018-09-27T01:05:03.949Z,14.90
2018-09-27T01:07:34.992Z,14.90
2018-09-27T01:10:06.246Z,15.00
2018-09-27T01:12:37.453Z,15.10
2018-09-27T01:15:08.714Z,15.20
2018-09-27T01:17:39.718Z,15.20
2018-09-27T01:20:10.923Z,15.30
2018-09-27T01:22:42.156Z,15.30
2018-09-27T01:25:13.532Z,15.20
2018-09-27T01:27:44.702Z,15.20
2018-09-27T01:30:16.075Z,15.10
2018-09-27T01:32:47.597Z,15.10
2018-09-27T01:35:20.137Z,15.10
2018-09-27T01:37:51.261Z,15.00
2018-09-27T01:40:22.321Z,14.80
2018-09-27T01:42:53.448Z,14.70
2018-09-27T01:45:24.869Z,14.60
2018-09-27T01:47:56.503Z,14.50
2018-09-27T01:50:27.551Z,14.30
2018-09-27T01:52:58.592Z,14.10
2018-09-27T01:55:29.796Z,14.00
2018-09-27T01:58:00.787Z,13.80
2018-09-27T02:00:32.050Z,13.60
2018-09-27T02:03:03.155Z,13.50
2018-09-27T02:05:34.099Z,13.40
2018-09-27T02:08:05.078Z,13.20
2018-09-27T02:10:36.057Z,13.00
2018-09-27T02:13:07.141Z,12.80
2018-09-27T02:15:38.258Z,12.80
2018-09-27T02:18:09.399Z,12.80
2018-09-27T02:20:40.377Z,12.80
2018-09-27T02:23:11.400Z,12.70
2018-09-27T02:25:42.423Z,12.60
2018-09-27T02:28:13.376Z,12.60
2018-09-27T02:30:44.543Z,12.60
2018-09-27T02:33:15.674Z,12.50
2018-09-27T02:35:46.911Z,12.50
2018-09-27T02:38:18.212Z,12.50
2018-09-27T02:40:49.390Z,12.50
2018-09-27T02:43:20.576Z,12.40
2018-09-27T02:45:52.249Z,12.40
2018-09-27T02:48:23.565Z,12.30
2018-09-27T02:50:54.623Z,12.20
2018-09-27T02:53:25.678Z,12.30
2018-09-27T02:55:56.730Z,12.30
2018-09-27T02:58:28.111Z,12.20
2018-09-27T03:00:59.181Z,12.20
2018-09-27T03:03:30.251Z,12.10
2018-09-27T03:06:01.475Z,12.10
2018-09-27T03:08:32.439Z,12.00
2018-09-27T03:11:03.429Z,11.90
2018-09-27T03:13:34.500Z,11.90
2018-09-27T03:16:05.551Z,11.70
2018-09-27T03:18:36.594Z,11.60
2018-09-27T03:21:07.682Z,11.50
2018-09-27T03:23:38.967Z,11.30
2018-09-27T03:26:10.058Z,11.30
2018-09-27T03:28:41.027Z,11.30
2018-09-27T03:31:12.113Z,11.30
2018-09-27T03:33:43.068Z,11.30
2018-09-27T03:36:14.183Z,11.30
2018-09-27T03:38:45.415Z,11.20
2018-09-27T03:41:16.478Z,11.20
2018-09-27T03:43:47.462Z,11.10
2018-09-27T03:46:18.593Z,11.00
2018-09-27T03:48:49.728Z,10.90
2018-09-27T03:51:20.683Z,10.90
2018-09-27T03:53:51.600Z,10.90
2018-09-27T03:56:22.503Z,10.90
2018-09-27T03:58:53.455Z,10.70
2018-09-27T04:01:24.472Z,10.50
2018-09-27T04:03:55.602Z,10.50
2018-09-27T04:06:27.939Z,10.50
2018-09-27T04:08:58.960Z,10.50
2018-09-27T04:11:30.061Z,10.50
2018-09-27T04:14:01.135Z,10.50
2018-09-27T04:16:32.184Z,10.50
2018-09-27T04:19:03.451Z,10.50
2018-09-27T04:21:34.467Z,10.50
2018-09-27T04:24:05.587Z,10.70
2018-09-27T04:26:36.668Z,10.70
2018-09-27T04:29:07.776Z,10.80
2018-09-27T04:31:38.748Z,10.90
2018-09-27T04:34:10.212Z,11.00
2018-09-27T04:36:41.341Z,11.20
2018-09-27T04:39:13.879Z,11.30
2018-09-27T04:41:44.835Z,11.30
2018-09-27T04:44:15.967Z,11.30
2018-09-27T04:46:46.929Z,11.30
2018-09-27T04:49:18.183Z,11.20
2018-09-27T04:51:49.314Z,11.10
2018-09-27T04:54:20.542Z,11.00
2018-09-27T04:56:51.570Z,10.80
2018-09-27T04:59:22.776Z,10.70
2018-09-27T05:01:53.885Z,10.40
2018-09-27T05:04:25.071Z,10.20
2018-09-27T05:06:56.116Z,10.00
2018-09-27T05:09:27.271Z,9.90
2018-09-27T05:11:58.483Z,9.70
2018-09-27T05:14:29.583Z,9.60
2018-09-27T05:17:00.887Z,9.50
2018-09-27T05:19:32.327Z,9.40
2018-09-27T05:22:03.440Z,9.50
2018-09-27T05:24:34.611Z,9.50
2018-09-27T05:27:05.898Z,9.50
2018-09-27T05:29:37.152Z,9.50
2018-09-27T05:32:08.559Z,9.50
2018-09-27T05:34:39.633Z,9.60
2018-09-27T05:37:10.758Z,9.50
2018-09-27T05:39:41.930Z,9.40
2018-09-27T05:42:13.183Z,9.40
2018-09-27T05:44:44.342Z,9.30
2018-09-27T05:47:15.426Z,9.20
2018-09-27T05:49:46.553Z,9.10
2018-09-27T05:52:17.924Z,9.00
2018-09-27T05:54:49.027Z,9.00
2018-09-27T05:57:20.131Z,8.90
2018-09-27T05:59:51.238Z,8.90
2018-09-27T06:02:22.442Z,8.90
2018-09-27T06:04:53.455Z,8.90
2018-09-27T06:07:24.523Z,8.90
2018-09-27T06:09:55.623Z,9.00
2018-09-27T06:12:26.851Z,9.00
2018-09-27T06:14:57.874Z,9.00
2018-09-27T06:17:28.999Z,8.90
2018-09-27T06:20:00.135Z,8.70
2018-09-27T06:22:31.287Z,8.60
2018-09-27T06:25:02.618Z,8.60
2018-09-27T06:27:33.782Z,8.60
2018-09-27T06:30:05.198Z,8.50
2018-09-27T06:32:36.184Z,8.30
2018-09-27T06:35:07.215Z,8.20
2018-09-27T06:37:38.507Z,8.30
2018-09-27T06:40:09.499Z,8.20
2018-09-27T06:42:40.567Z,8.20
2018-09-27T06:45:11.670Z,8.20
2018-09-27T06:47:42.695Z,8.20
2018-09-27T06:50:13.719Z,8.20
2018-09-27T06:52:44.655Z,8.20
2018-09-27T06:55:15.865Z,8.20
2018-09-27T06:57:46.806Z,8.20
2018-09-27T07:00:17.765Z,8.20
2018-09-27T07:02:48.786Z,8.30
2018-09-27T07:05:19.852Z,8.40
2018-09-27T07:07:50.886Z,8.50
2018-09-27T07:10:21.917Z,8.50
2018-09-27T07:12:53.049Z,8.40
2018-09-27T07:15:24.207Z,8.30
2018-09-27T07:17:55.295Z,8.30
2018-09-27T07:20:26.420Z,8.20
2018-09-27T07:22:57.487Z,8.10
2018-09-27T07:25:28.698Z,8.10
2018-09-27T07:28:00.191Z,8.20
2018-09-27T07:30:31.336Z,8.10
2018-09-27T07:33:02.355Z,8.10
2018-09-27T07:35:33.406Z,8.00
2018-09-27T07:38:04.599Z,7.90
2018-09-27T07:40:35.633Z,7.90
2018-09-27T07:43:06.743Z,7.70
2018-09-27T07:45:37.787Z,7.60
2018-09-27T07:48:08.919Z,7.50
2018-09-27T07:50:40.117Z,7.30
2018-09-27T07:53:11.148Z,7.20
2018-09-27T07:55:42.258Z,7.20
2018-09-27T07:58:13.279Z,7.30
2018-09-27T08:00:44.315Z,7.20
2018-09-27T08:03:15.295Z,7.10
2018-09-27T08:05:46.339Z,7.10
2018-09-27T08:08:17.367Z,6.90
2018-09-27T08:10:48.363Z,6.80
2018-09-27T08:13:19.371Z,6.80
2018-09-27T08:15:50.447Z,6.70
2018-09-27T08:18:21.606Z,6.80
2018-09-27T08:20:52.716Z,6.80
2018-09-27T08:23:23.772Z,6.80
2018-09-27T08:25:54.735Z,6.90
2018-09-27T08:28:25.799Z,6.80
2018-09-27T08:30:57.005Z,6.60
2018-09-27T08:33:28.104Z,6.60
2018-09-27T08:35:59.148Z,6.60
2018-09-27T08:38:30.195Z,6.70
2018-09-27T08:41:01.343Z,7.00
2018-09-27T08:43:32.416Z,6.80
2018-09-27T08:46:03.486Z,6.70
2018-09-27T08:48:34.748Z,6.70
2018-09-27T08:51:06.038Z,6.70
2018-09-27T08:53:37.166Z,6.60
2018-09-27T08:56:08.505Z,6.50
2018-09-27T08:58:39.809Z,6.50
2018-09-27T09:01:10.999Z,6.40
2018-09-27T09:03:42.094Z,6.30
2018-09-27T09:06:13.375Z,6.40
2018-09-27T09:08:44.602Z,6.50
2018-09-27T09:11:15.775Z,6.50
2018-09-27T09:13:46.783Z,6.30
2018-09-27T09:16:17.823Z,6.30
2018-09-27T09:18:48.834Z,6.20
2018-09-27T09:21:19.892Z,6.10
2018-09-27T09:23:50.955Z,6.00
2018-09-27T09:26:21.932Z,5.80
2018-09-27T09:28:53.039Z,5.70
2018-09-27T09:31:24.367Z,5.70
2018-09-27T09:33:55.662Z,5.70
2018-09-27T09:36:27.021Z,5.90
2018-09-27T09:38:58.106Z,6.20
2018-09-27T09:41:29.258Z,6.20
2018-09-27T09:44:00.355Z,6.10
2018-09-27T09:46:31.589Z,6.00
2018-09-27T09:49:02.797Z,6.00
2018-09-27T09:51:33.804Z,6.00
2018-09-27T09:54:04.823Z,5.90
2018-09-27T09:56:35.862Z,5.90
2018-09-27T09:59:06.975Z,5.80
2018-09-27T10:01:38.152Z,5.80
2018-09-27T10:04:10.588Z,5.80
2018-09-27T10:06:41.793Z,5.80
2018-09-27T10:09:13.526Z,5.80
2018-09-27T10:11:44.725Z,5.70
2018-09-27T10:14:15.985Z,5.70
2018-09-27T10:16:47.149Z,5.60
2018-09-27T10:19:18.373Z,5.50
2018-09-27T10:21:49.519Z,5.30
2018-09-27T10:24:21.026Z,5.30
2018-09-27T10:26:52.192Z,5.20
2018-09-27T10:29:23.381Z,5.10
2018-09-27T10:31:54.669Z,5.20
2018-09-27T10:34:25.999Z,5.20
2018-09-27T10:36:57.130Z,5.30
2018-09-27T10:39:28.342Z,5.50
2018-09-27T10:41:59.556Z,5.50
2018-09-27T10:44:30.635Z,5.50
2018-09-27T10:47:01.878Z,5.50
2018-09-27T10:49:32.887Z,5.50
2018-09-27T10:52:03.928Z,5.30
2018-09-27T10:54:35.135Z,5.40
2018-09-27T10:57:06.378Z,5.30
2018-09-27T10:59:37.647Z,5.30
2018-09-27T11:02:08.805Z,5.30
2018-09-27T11:04:39.989Z,5.20
2018-09-27T11:07:11.103Z,5.40
2018-09-27T11:09:42.191Z,5.90
2018-09-27T11:12:13.312Z,5.90
2018-09-27T11:14:44.625Z,5.60
2018-09-27T11:17:15.767Z,5.40
2018-09-27T11:19:46.868Z,5.50
2018-09-27T11:22:18.146Z,5.40
2018-09-27T11:24:49.218Z,5.60
2018-09-27T11:27:20.791Z,5.70
2018-09-27T11:29:56.582Z,5.80
2018-09-27T11:32:31.668Z,5.90
2018-09-27T11:35:02.893Z,5.80
2018-09-27T11:37:34.123Z,5.70
2018-09-27T11:40:05.305Z,5.80
2018-09-27T11:42:36.495Z,5.90
2018-09-27T11:45:07.940Z,6.10
2018-09-27T11:47:40.385Z,6.20
2018-09-27T11:52:37.162Z,6.60
2018-09-27T11:55:08.464Z,6.80
2018-09-27T11:57:39.644Z,6.90
2018-09-27T12:00:11.158Z,6.90
2018-09-27T12:02:42.250Z,7.10
2018-09-27T12:05:13.548Z,7.10
2018-09-27T12:07:44.693Z,7.20
2018-09-27T12:10:15.935Z,7.20
2018-09-27T12:12:46.995Z,7.20
2018-09-27T12:15:18.034Z,7.30
2018-09-27T12:17:49.394Z,7.40
2018-09-27T12:20:20.559Z,7.40
2018-09-27T12:22:51.717Z,7.60
2018-09-27T12:25:23.013Z,7.70
2018-09-27T12:27:54.466Z,7.80
2018-09-27T12:30:25.717Z,7.90
2018-09-27T12:33:03.841Z,8.00
2018-09-27T12:35:35.040Z,8.00
2018-09-27T12:38:06.226Z,8.00
2018-09-27T12:40:37.281Z,8.10
2018-09-27T12:43:08.686Z,8.20
2018-09-27T12:45:39.788Z,8.30
2018-09-27T12:48:11.040Z,8.40
2018-09-27T12:50:42.402Z,8.50
2018-09-27T12:53:13.592Z,8.60
2018-09-27T12:55:44.844Z,8.70
2018-09-27T12:58:15.918Z,8.90
2018-09-27T13:00:46.999Z,9.00
2018-09-27T13:03:17.984Z,9.10
2018-09-27T13:05:48.921Z,9.30
2018-09-27T13:08:20.060Z,9.40
2018-09-27T13:10:51.011Z,9.50
2018-09-27T13:13:22.142Z,9.60
2018-09-27T13:15:53.245Z,9.70
2018-09-27T13:18:24.231Z,9.90
2018-09-27T13:20:55.411Z,10.10
2018-09-27T13:23:26.768Z,10.20
2018-09-27T13:25:58.121Z,10.40
2018-09-27T13:28:29.388Z,10.60
2018-09-27T13:31:00.667Z,10.70
2018-09-27T13:33:31.709Z,10.90
2018-09-27T13:36:02.780Z,11.10
2018-09-27T13:38:33.921Z,11.20
2018-09-27T13:41:04.991Z,11.30
2018-09-27T13:43:36.108Z,11.40
2018-09-27T13:46:07.382Z,11.50
2018-09-27T13:48:38.492Z,11.70
2018-09-27T13:51:09.690Z,11.90
2018-09-27T13:53:40.714Z,12.00
2018-09-27T13:56:11.890Z,12.10
2018-09-27T13:58:43.072Z,12.20
2018-09-27T14:01:14.110Z,12.30
2018-09-27T14:03:47.146Z,12.40
2018-09-27T14:06:18.139Z,12.60
2018-09-27T14:08:49.323Z,12.80
2018-09-27T14:11:20.476Z,13.10
2018-09-27T14:13:51.499Z,13.30
2018-09-27T14:16:22.691Z,13.40
2018-09-27T14:18:53.784Z,13.30
2018-09-27T14:21:24.987Z,13.30
2018-09-27T14:23:55.984Z,13.30
2018-09-27T14:26:26.980Z,13.30
2018-09-27T14:28:58.056Z,13.30
2018-09-27T14:31:29.284Z,13.30
2018-09-27T14:34:00.414Z,13.20
2018-09-27T14:36:31.855Z,13.10
2018-09-27T14:39:02.951Z,13.20
2018-09-27T14:41:34.187Z,13.20
2018-09-27T14:44:05.301Z,13.30
2018-09-27T14:46:36.400Z,13.40
2018-09-27T14:49:07.520Z,13.60
2018-09-27T14:51:38.662Z,13.90
2018-09-27T14:54:09.984Z,14.20
2018-09-27T14:56:41.120Z,14.40
2018-09-27T14:59:12.271Z,14.60
2018-09-27T15:01:43.299Z,14.90
2018-09-27T15:04:14.383Z,15.20
2018-09-27T15:06:45.579Z,15.40
2018-09-27T15:09:16.899Z,15.50
2018-09-27T15:11:48.028Z,15.40
2018-09-27T15:14:19.206Z,15.40
2018-09-27T15:16:50.395Z,15.50
2018-09-27T15:19:21.442Z,15.40
2018-09-27T15:21:52.564Z,15.40
2018-09-27T15:24:23.558Z,15.60
2018-09-27T15:26:54.547Z,15.70
2018-09-27T15:29:25.679Z,15.30
2018-09-27T15:31:56.927Z,15.40
2018-09-27T15:37:21.019Z,15.20
2018-09-27T15:39:52.064Z,15.50
2018-09-27T15:42:23.121Z,16.00
2018-09-27T15:44:54.279Z,16.60
2018-09-27T15:47:25.297Z,16.20
2018-09-27T15:49:56.331Z,16.00
2018-09-27T15:52:27.351Z,15.60
2018-09-27T15:54:58.447Z,15.40
2018-09-27T15:57:29.548Z,15.90
2018-09-27T16:00:00.624Z,16.20
2018-09-27T16:02:31.631Z,16.40
2018-09-27T16:05:02.664Z,16.90
2018-09-27T16:07:33.807Z,16.70
2018-09-27T16:10:04.988Z,17.40
2018-09-27T16:12:36.491Z,17.70
2018-09-27T16:15:07.575Z,17.40
2018-09-27T16:17:39.215Z,17.50
2018-09-27T16:20:10.375Z,17.80
2018-09-27T16:22:41.397Z,18.10
2018-09-27T16:25:12.543Z,18.00
2018-09-27T16:27:43.555Z,18.00
2018-09-27T16:30:14.572Z,17.40
2018-09-27T16:32:45.591Z,16.90
2018-09-27T16:35:16.569Z,16.80
2018-09-27T16:37:47.606Z,16.90
2018-09-27T16:40:18.638Z,17.00
2018-09-27T16:42:49.832Z,17.20
2018-09-27T16:45:20.905Z,18.00
2018-09-27T16:47:51.956Z,18.20
2018-09-27T16:50:22.907Z,19.20
2018-09-27T16:52:54.061Z,19.30
2018-09-27T16:55:25.064Z,19.70
2018-09-27T16:57:56.159Z,19.90
2018-09-27T17:00:27.080Z,19.70
2018-09-27T17:02:58.100Z,19.80
2018-09-27T17:05:29.134Z,20.00
2018-09-27T17:08:00.390Z,19.70
2018-09-27T17:10:31.391Z,19.00
2018-09-27T17:13:02.467Z,18.30
2018-09-27T17:15:33.483Z,18.30
2018-09-27T17:18:04.533Z,18.70
2018-09-27T17:20:35.523Z,19.20
2018-09-27T17:23:06.523Z,19.70
2018-09-27T17:25:37.458Z,19.70
2018-09-27T17:28:08.555Z,19.80
2018-09-27T17:30:39.519Z,20.20
2018-09-27T17:33:10.657Z,20.30
2018-09-27T17:35:42.161Z,20.00
2018-09-27T17:38:13.146Z,19.10
2018-09-27T17:40:44.403Z,18.60
2018-09-27T17:43:15.547Z,17.90
2018-09-27T17:45:46.555Z,18.20
2018-09-27T17:48:17.531Z,18.90
2018-09-27T17:50:48.414Z,19.20
2018-09-27T17:53:19.558Z,19.50
2018-09-27T17:55:50.391Z,19.70
2018-09-27T17:58:21.450Z,19.60
2018-09-27T18:00:52.543Z,19.60
2018-09-27T18:03:23.566Z,19.50
2018-09-27T18:05:54.644Z,20.00
2018-09-27T18:08:25.741Z,20.10
2018-09-27T18:10:56.727Z,19.40
2018-09-27T18:13:27.768Z,19.20
2018-09-27T18:16:11.816Z,18.80
2018-09-27T18:18:43.979Z,19.00
2018-09-27T18:21:15.467Z,19.00
2018-09-27T18:23:46.676Z,19.10
2018-09-27T18:26:17.763Z,19.30
2018-09-27T18:28:49.001Z,18.90
2018-09-27T18:31:28.194Z,18.60
2018-09-27T18:33:59.455Z,18.90
2018-09-27T18:36:30.502Z,18.90
2018-09-27T18:39:01.637Z,19.50
2018-09-27T18:41:32.690Z,19.90
2018-09-27T18:44:03.815Z,20.40
2018-09-27T18:46:34.933Z,20.20
2018-09-27T18:49:06.618Z,20.40
2018-09-27T18:51:37.824Z,20.40
2018-09-27T18:54:08.989Z,19.90
2018-09-27T18:56:40.365Z,19.80
2018-09-27T18:59:11.730Z,19.80
2018-09-27T19:01:42.744Z,19.60
2018-09-27T19:04:13.815Z,20.00
2018-09-27T19:06:44.813Z,19.90
2018-09-27T19:09:15.785Z,19.20
2018-09-27T19:11:46.923Z,18.90
2018-09-27T19:14:18.124Z,18.80
2018-09-27T19:16:49.461Z,19.00
2018-09-27T19:19:20.564Z,18.70
2018-09-27T19:21:51.757Z,18.40
2018-09-27T19:24:22.799Z,18.40
2018-09-27T19:26:53.825Z,18.30
2018-09-27T19:29:24.895Z,18.30
2018-09-27T19:31:56.270Z,18.10
2018-09-27T19:34:27.756Z,18.30
2018-09-27T19:36:58.847Z,18.90
2018-09-27T19:39:29.817Z,18.90
2018-09-27T19:42:00.823Z,19.20
2018-09-27T19:44:31.894Z,19.40
2018-09-27T19:47:03.079Z,20.00
2018-09-27T19:49:34.213Z,20.60
2018-09-27T19:52:05.353Z,20.50
2018-09-27T19:54:36.466Z,19.90
2018-09-27T19:57:07.533Z,19.50
2018-09-27T19:59:38.643Z,19.50
2018-09-27T20:02:09.687Z,18.90
2018-09-27T20:04:42.110Z,18.80
2018-09-27T20:07:13.101Z,18.80
2018-09-27T20:09:44.347Z,19.10
2018-09-27T20:12:15.568Z,18.70
2018-09-27T20:14:46.562Z,18.40
2018-09-27T20:17:17.591Z,18.40
2018-09-27T20:19:48.677Z,18.30
2018-09-27T20:22:19.810Z,18.20
2018-09-27T20:24:50.812Z,18.10
2018-09-27T20:27:22.668Z,18.00
2018-09-27T20:32:19.465Z,17.90
2018-09-27T20:34:50.479Z,17.80
2018-09-27T20:37:21.538Z,17.70
2018-09-27T20:39:52.587Z,17.80
2018-09-27T20:42:23.536Z,17.80
2018-09-27T20:44:54.724Z,17.80
2018-09-27T20:47:26.022Z,17.70
2018-09-27T20:49:57.147Z,17.70
2018-09-27T20:52:28.311Z,17.60
2018-09-27T20:54:59.240Z,17.50
2018-09-27T20:57:30.216Z,17.40
2018-09-27T21:00:01.227Z,17.30
2018-09-27T21:02:32.122Z,17.20
2018-09-27T21:05:03.048Z,17.00
2018-09-27T21:07:33.943Z,17.00
2018-09-27T21:12:40.208Z,17.00
2018-09-27T21:15:18.338Z,17.00
2018-09-27T21:17:49.276Z,16.90
2018-09-27T21:20:20.198Z,16.80
2018-09-27T21:22:51.396Z,16.70
2018-09-27T21:25:22.388Z,16.60
2018-09-27T21:27:53.378Z,16.60
2018-09-27T21:30:24.571Z,16.50
2018-09-27T21:32:55.722Z,16.30
2018-09-27T21:35:26.856Z,16.20
2018-09-27T21:37:58.071Z,16.10
2018-09-27T21:40:29.488Z,16.00
2018-09-27T21:43:00.649Z,15.80
2018-09-27T21:45:31.776Z,15.70
2018-09-27T21:48:02.970Z,15.60
2018-09-27T21:50:34.133Z,15.50
2018-09-27T21:53:05.286Z,15.50
2018-09-27T21:55:36.466Z,15.40
2018-09-27T21:58:07.635Z,15.40
2018-09-27T22:00:40.839Z,15.20
2018-09-27T22:03:17.107Z,15.10
2018-09-27T22:05:50.319Z,14.90
2018-09-27T22:08:23.211Z,14.70
2018-09-27T22:10:55.026Z,14.60
2018-09-27T22:13:26.135Z,14.50
2018-09-27T22:15:57.280Z,14.40
2018-09-27T22:18:28.465Z,14.40
2018-09-27T22:20:59.519Z,14.50
2018-09-27T22:23:30.756Z,14.40
2018-09-27T22:26:14.458Z,14.30
2018-09-27T22:28:45.543Z,14.10
2018-09-27T22:31:16.560Z,14.20
2018-09-27T22:33:50.757Z,14.10
2018-09-27T22:36:21.957Z,14.00
2018-09-27T22:38:52.996Z,14.00
2018-09-27T22:41:24.224Z,14.00
2018-09-27T22:43:55.375Z,14.00
2018-09-27T22:46:26.647Z,14.10
2018-09-27T22:48:57.702Z,14.10
2018-09-27T22:51:28.723Z,13.90
2018-09-27T22:53:59.819Z,13.90
2018-09-27T22:56:31.387Z,13.90
2018-09-27T22:59:03.917Z,14.00
2018-09-27T23:01:35.315Z,14.00
2018-09-27T23:04:07.475Z,13.90
2018-09-27T23:06:38.940Z,13.90
2018-09-27T23:09:10.556Z,13.90
2018-09-27T23:11:41.663Z,13.90
2018-09-27T23:14:13.799Z,13.90
2018-09-27T23:16:45.126Z,13.80
2018-09-27T23:19:16.295Z,13.60
2018-09-27T23:21:47.360Z,13.60
2018-09-27T23:24:18.826Z,13.50
2018-09-27T23:26:49.864Z,13.50
2018-09-27T23:29:21.024Z,13.50
2018-09-27T23:31:52.015Z,13.50
2018-09-27T23:34:23.092Z,13.40
2018-09-27T23:36:54.119Z,13.50
2018-09-27T23:39:25.142Z,13.40
2018-09-27T23:41:56.212Z,13.40
2018-09-27T23:44:27.431Z,13.40
2018-09-27T23:46:58.375Z,13.30
2018-09-27T23:51:55.103Z,13.20
2018-09-27T23:54:26.015Z,13.30
2018-09-27T23:56:56.955Z,13.30
2018-09-27T23:59:27.930Z,13.30
